Arlington, Georgia
Current Conditions -  °F | °C
As of 8:15 PM on Sunday 23 Nov 2014 (Local Time) from KBIJ Reporting Station
Overcast Overcast  
Wind Chill: 19°   Ceiling: 900
Heat Index: 19°   Visibility: 10mi
Dew Point: 18°   Wind: 7mph
Humidity: 94%   Direction: 210°SSW
Pressure: 29.81"   Gusts: NA
Location:  31.44°N, 84.72°W
Report Text: KBIJ 240115Z AUTO 21006KT 10SM OVC009 19/18 A2981 RMK AO2 LTG DSNT SE
Loading
Personal Weather Stations






























Interactive Weather Map New forecast layout! Learn more

10-Day Weather Forecast

Advertisements
Track Severe Weather on mobile